PINE FLAT DAM (PNF)

Elevation: 970' · KINGS R basin · Operator: US Army Corps of Engineers

Provisional data, subject to change.
Query executed Friday at 8:50:00   clock

Select a sensor type for a plot of data.
Note: Reservoir Flows are daily averages.

Earlier

Date RES ELE    STORAGE    RES CHG    TOC STO    ABV TOC    OUTFLOW    INFLOW    FNF    PPT INC    TEMP MN    TEMP MX    WINDLEN    EVP PAN   
 FEET   AF   AF   AF   AF   CFS   CFS   CFS   INCHES   DEG F   DEG F   MILES   INCHES  
07/02/2014 805.99 335210 -8650 1000000 -664790 5142 813 562 0.00 -- -- 55 0.31
07/03/2014 803.38 326640 -8570 1000000 -- 5234 946 681 0.00 -- -- 54 0.31
07/04/2014 800.80 318280 -8360 1000000 -681720 4938 758 579 0.01 -- -- 55 0.31
07/05/2014 798.25 310140 -8140 1000000 -689860 4935 859 545 0.00 -- -- 54 0.31
07/06/2014 795.60 301780 -8360 1000000 -698220 4929 743 551 0.00 -- -- 50 0.24
07/07/2014 793.24 294450 -7330 1000000 -705550 4600 920 516 0.00 -- -- 41 0.18
07/08/2014 790.82 287030 -7420 -- -- 4579 866 485 e 0.00 -- -- 52 0.30
07/09/2014 788.26 279280 -7750 -- -- 4523 649 455 e 0.00 -- -- 54 0.31
07/10/2014 785.81 271970 -7310 1000000 -728030 4471 816 435 0.00 -- -- 53 0.30
07/11/2014 783.31 264620 -7350 1000000 -735380 4410 731 455 0.00 -- -- 56 0.29
07/12/2014 781.16 258390 -- 1000000 -- 3732 615 441 0.00 -- -- 58 0.30
07/13/2014 779.06 252370 -- 1000000 -- 3733 729 338 0.00 -- -- 61 0.31
07/14/2014 776.98 246490 -- 1000000 -753510 3755 808 411 0.00 -- -- 45 0.22
07/15/2014 774.74 240230 -6260 1000000 -759770 -- -- 371 -- -- -- -- --
07/16/2014 772.38 233730 -6500 1000000 -766270 4020 770 475 0.00 -- -- 62 0.30
07/17/2014 769.92 227060 -6670 1000000 -772940 4113 773 336 0.00 -- -- 58 0.29
07/18/2014 767.13 219620 -7440 1000000 -780380 4250 520 498 0.00 -- -- 54 0.28
07/19/2014 764.38 212410 -7210 1000000 -787590 4311 695 395 0.00 -- -- 45 0.22
07/20/2014 761.49 204970 -7440 1000000 -795030 4300 571 327 0.00 -- -- 53 0.25
07/21/2014 758.76 198070 -6900 1000000 -801930 4202 747 562 0.00 -- -- 59 0.29
07/22/2014 756.17 191640 -6430 1000000 -808360 3881 664 391 0.00 -- -- 60 0.30
07/23/2014 753.53 185200 -6440 1000000 -814800 3752 528 336 0.00 -- -- 66 0.29
07/24/2014 750.96 179040 -6160 1000000 -820960 3622 541 263 0.00 -- -- 53 0.29
07/25/2014 748.48 173210 -5830 1000000 -826790 3616 696 540 0.00 -- -- 54 0.28
07/26/2014 745.85 167130 -6080 1000000 -832870 3579 538 233 0.00 -- -- 51 0.31
07/27/2014 743.14 160990 -6140 1000000 -839010 3520 444 124 0.00 -- -- 52 0.29
07/28/2014 740.46 155030 -5960 1000000 -844970 3520 528 -14988 0.00 -- -- 31 0.15
07/29/2014 737.70 149020 -6010 1000000 -850980 3520 508 15364 0.00 -- -- 47 0.25
07/30/2014 735.27 143830 -5190 1000000 -856170 3288 684 321 0.00 -- -- 47 0.18
07/31/2014 733.67 140470 -3360 -- -- -- -- -- -- -- -- -- --
08/01/2014 -- -- -- -- -- -- -- -- -- -- -- -- --

Later | Latest

Warning! This data is preliminary and subject to revision.

Download Data Now Download Data Now | Show PNF Map | Plot PNF Data | 1 Month PNF Data | Real-Time PNF Data | PNF Info